createdAt,value
2022-11-02T00:01:14.804Z,0.20
2022-11-02T00:03:41.134Z,0.20
2022-11-02T00:06:07.559Z,0.10
2022-11-02T00:08:33.965Z,0.20
2022-11-02T00:11:00.248Z,0.10
2022-11-02T00:13:26.514Z,0.10
2022-11-02T00:15:52.841Z,0.90
2022-11-02T00:18:19.174Z,0.85
2022-11-02T00:20:45.686Z,0.35
2022-11-02T00:23:13.468Z,0.43
2022-11-02T00:25:41.845Z,0.60
2022-11-02T00:28:08.337Z,0.57
2022-11-02T00:30:34.770Z,0.93
2022-11-02T00:33:01.322Z,1.15
2022-11-02T00:35:27.794Z,0.50
2022-11-02T00:37:54.109Z,0.68
2022-11-02T00:40:20.411Z,0.73
2022-11-02T00:42:46.764Z,0.80
2022-11-02T00:45:13.223Z,0.93
2022-11-02T00:47:39.494Z,0.90
2022-11-02T00:50:06.030Z,0.90
2022-11-02T00:52:32.435Z,0.80
2022-11-02T00:54:58.740Z,0.70
2022-11-02T00:57:25.040Z,0.75
2022-11-02T00:59:51.456Z,0.95
2022-11-02T01:02:18.138Z,0.80
2022-11-02T01:04:44.658Z,0.43
2022-11-02T01:07:10.988Z,0.95
2022-11-02T01:09:37.275Z,0.75
2022-11-02T01:12:03.630Z,0.60
2022-11-02T01:14:30.154Z,0.77
2022-11-02T01:16:57.812Z,0.75
2022-11-02T01:19:24.534Z,0.80
2022-11-02T01:21:51.098Z,0.65
2022-11-02T01:24:17.402Z,0.40
2022-11-02T01:26:43.689Z,0.60
2022-11-02T01:29:10.346Z,0.47
2022-11-02T01:31:36.652Z,0.50
2022-11-02T01:34:03.286Z,0.85
2022-11-02T01:36:29.675Z,0.65
2022-11-02T01:38:56.077Z,0.50
2022-11-02T01:41:22.494Z,0.50
2022-11-02T01:43:49.917Z,0.95
2022-11-02T01:46:18.779Z,1.00
2022-11-02T01:48:55.512Z,0.68
2022-11-02T01:51:25.304Z,1.00
2022-11-02T01:53:52.719Z,0.90
2022-11-02T01:56:20.718Z,1.05
2022-11-02T01:58:49.159Z,0.80
2022-11-02T02:01:15.682Z,0.70
2022-11-02T02:03:42.446Z,1.42
2022-11-02T02:06:10.034Z,1.65
2022-11-02T02:08:38.969Z,2.08
2022-11-02T02:11:24.039Z,1.13
2022-11-02T02:13:51.263Z,0.90
2022-11-02T02:16:33.334Z,1.48
2022-11-02T02:19:01.822Z,1.42
2022-11-02T02:21:40.026Z,1.08
2022-11-02T02:24:06.286Z,1.02
2022-11-02T02:26:32.571Z,1.00
2022-11-02T02:29:05.726Z,1.10
2022-11-02T02:31:36.887Z,1.17
2022-11-02T02:34:12.429Z,1.00
2022-11-02T02:39:26.699Z,1.40
2022-11-02T02:41:59.546Z,1.25
2022-11-02T02:44:27.786Z,1.48
2022-11-02T02:46:59.036Z,1.73
2022-11-02T02:49:27.377Z,1.40
2022-11-02T02:51:55.948Z,1.20
2022-11-02T02:54:24.947Z,1.30
2022-11-02T02:56:53.827Z,1.10
2022-11-02T02:59:23.257Z,1.08
2022-11-02T03:01:49.695Z,1.55
2022-11-02T03:04:16.200Z,1.67
2022-11-02T03:06:44.318Z,1.42
2022-11-02T03:09:10.595Z,1.15
2022-11-02T03:11:40.818Z,1.13
2022-11-02T03:14:22.382Z,1.40
2022-11-02T03:17:07.649Z,1.50
2022-11-02T03:19:38.898Z,1.50
2022-11-02T03:22:09.003Z,1.50
2022-11-02T03:24:47.451Z,1.38
2022-11-02T03:27:22.877Z,1.33
2022-11-02T03:29:49.180Z,1.10
2022-11-02T03:32:25.136Z,1.20
2022-11-02T03:34:58.623Z,1.45
2022-11-02T03:37:31.016Z,1.77
2022-11-02T03:39:58.910Z,1.60
2022-11-02T03:42:27.076Z,1.02
2022-11-02T03:45:16.744Z,1.52
2022-11-02T03:47:45.259Z,1.08
2022-11-02T03:50:12.999Z,1.00
2022-11-02T03:52:41.682Z,1.08
2022-11-02T03:55:08.299Z,1.10
2022-11-02T03:57:39.242Z,1.58
2022-11-02T04:00:06.500Z,0.95
2022-11-02T04:02:35.160Z,1.75
2022-11-02T04:05:01.552Z,0.85
2022-11-02T04:07:50.687Z,0.90
2022-11-02T04:10:18.713Z,1.05
2022-11-02T04:13:03.945Z,0.70
2022-11-02T04:15:30.253Z,1.10
2022-11-02T04:18:15.478Z,1.52
2022-11-02T04:20:41.995Z,0.90
2022-11-02T04:23:26.925Z,0.73
2022-11-02T04:25:56.599Z,0.70
2022-11-02T04:28:22.947Z,1.17
2022-11-02T04:30:49.426Z,1.20
2022-11-02T04:33:33.714Z,1.30
2022-11-02T04:36:01.470Z,2.22
2022-11-02T04:38:40.309Z,0.82
2022-11-02T04:41:30.049Z,0.93
2022-11-02T04:43:56.679Z,0.90
2022-11-02T04:46:24.525Z,1.05
2022-11-02T04:48:51.063Z,1.27
2022-11-02T04:51:17.808Z,1.13
2022-11-02T04:53:44.114Z,0.70
2022-11-02T04:56:10.791Z,1.77
2022-11-02T04:58:37.068Z,1.10
2022-11-02T05:01:07.044Z,1.10
2022-11-02T05:03:33.892Z,0.80
2022-11-02T05:06:00.200Z,1.08
2022-11-02T05:08:26.538Z,1.52
2022-11-02T05:10:56.501Z,1.13
2022-11-02T05:13:24.060Z,1.60
2022-11-02T05:15:50.526Z,1.13
2022-11-02T05:18:19.125Z,0.88
2022-11-02T05:20:49.973Z,1.10
2022-11-02T05:23:16.292Z,1.40
2022-11-02T05:25:42.605Z,1.33
2022-11-02T05:28:08.879Z,1.48
2022-11-02T05:30:35.172Z,1.45
2022-11-02T05:33:02.965Z,1.40
2022-11-02T05:35:29.672Z,1.38
2022-11-02T05:37:57.507Z,1.38
2022-11-02T05:40:23.886Z,1.55
2022-11-02T05:42:50.222Z,1.40
2022-11-02T05:45:20.503Z,1.30
2022-11-02T05:47:49.964Z,1.55
2022-11-02T05:50:16.291Z,1.77
2022-11-02T05:52:42.573Z,1.30
2022-11-02T05:55:09.029Z,1.48
2022-11-02T05:57:35.347Z,1.50
2022-11-02T06:00:02.180Z,1.20
2022-11-02T06:02:28.596Z,1.25
2022-11-02T06:04:54.978Z,1.60
2022-11-02T06:07:21.864Z,1.13
2022-11-02T06:09:48.220Z,1.50
2022-11-02T06:12:14.625Z,0.95
2022-11-02T06:14:41.030Z,1.42
2022-11-02T06:17:07.520Z,1.80
2022-11-02T06:19:33.817Z,1.50
2022-11-02T06:22:00.260Z,1.25
2022-11-02T06:24:26.751Z,1.40
2022-11-02T06:26:53.080Z,1.92
2022-11-02T06:29:19.361Z,1.42
2022-11-02T06:31:45.702Z,1.65
2022-11-02T06:34:11.991Z,1.30
2022-11-02T06:36:38.263Z,1.30
2022-11-02T06:39:04.568Z,1.42
2022-11-02T06:41:31.019Z,1.50
2022-11-02T06:43:57.358Z,1.30
2022-11-02T06:46:23.684Z,1.00
2022-11-02T06:48:50.068Z,1.90
2022-11-02T06:51:16.376Z,2.28
2022-11-02T06:53:42.691Z,1.48
2022-11-02T06:56:09.197Z,1.40
2022-11-02T06:58:35.482Z,1.50
2022-11-02T07:01:03.902Z,1.30
2022-11-02T07:03:30.539Z,1.55
2022-11-02T07:05:56.838Z,1.00
2022-11-02T07:08:23.626Z,1.20
2022-11-02T07:10:50.226Z,1.17
2022-11-02T07:13:16.539Z,1.70
2022-11-02T07:15:43.157Z,1.33
2022-11-02T07:18:09.539Z,1.50
2022-11-02T07:20:35.951Z,1.00
2022-11-02T07:23:03.136Z,1.75
2022-11-02T07:25:33.701Z,2.08
2022-11-02T07:28:00.392Z,1.45
2022-11-02T07:30:27.706Z,0.90
2022-11-02T07:32:54.116Z,1.60
2022-11-02T07:35:20.403Z,1.20
2022-11-02T07:37:54.990Z,0.88
2022-11-02T07:40:21.920Z,0.80
2022-11-02T07:42:48.225Z,1.35
2022-11-02T07:45:14.600Z,1.25
2022-11-02T07:47:44.677Z,1.15
2022-11-02T07:50:11.662Z,1.63
2022-11-02T07:52:48.956Z,1.25
2022-11-02T07:55:16.500Z,1.77
2022-11-02T07:57:43.805Z,1.00
2022-11-02T08:00:11.808Z,0.93
2022-11-02T08:02:38.552Z,1.10
2022-11-02T08:05:05.394Z,1.50
2022-11-02T08:07:31.706Z,1.15
2022-11-02T08:09:58.059Z,1.63
2022-11-02T08:12:24.887Z,1.27
2022-11-02T08:14:51.209Z,1.20
2022-11-02T08:17:17.542Z,1.35
2022-11-02T08:19:43.833Z,2.28
2022-11-02T08:22:10.407Z,0.98
2022-11-02T08:24:36.689Z,1.20
2022-11-02T08:27:03.485Z,1.42
2022-11-02T08:29:29.914Z,1.13
2022-11-02T08:31:56.196Z,1.58
2022-11-02T08:34:22.529Z,1.00
2022-11-02T08:36:48.829Z,1.75
2022-11-02T08:39:18.896Z,1.00
2022-11-02T08:41:45.629Z,0.85
2022-11-02T08:44:12.028Z,1.40
2022-11-02T08:46:38.321Z,0.82
2022-11-02T08:49:04.610Z,0.93
2022-11-02T08:51:31.135Z,0.90
2022-11-02T08:53:57.682Z,0.80
2022-11-02T08:56:24.093Z,0.90
2022-11-02T08:58:50.511Z,1.10
2022-11-02T09:01:16.849Z,1.05
2022-11-02T09:03:43.225Z,1.00
2022-11-02T09:06:09.627Z,0.93
2022-11-02T09:08:35.948Z,0.73
2022-11-02T09:11:03.306Z,1.08
2022-11-02T09:13:29.906Z,1.00
2022-11-02T09:15:57.280Z,0.93
2022-11-02T09:18:23.972Z,1.08
2022-11-02T09:20:51.483Z,1.27
2022-11-02T09:23:18.528Z,1.10
2022-11-02T09:25:44.893Z,0.82
2022-11-02T09:28:11.785Z,0.90
2022-11-02T09:30:40.673Z,1.00
2022-11-02T09:33:07.779Z,0.68
2022-11-02T09:35:35.360Z,0.70
2022-11-02T09:38:01.799Z,0.90
2022-11-02T09:40:29.074Z,0.70
2022-11-02T09:42:55.438Z,0.90
2022-11-02T09:45:22.041Z,1.08
2022-11-02T09:48:15.443Z,1.23
2022-11-02T09:50:44.231Z,0.80
2022-11-02T09:53:14.016Z,0.70
2022-11-02T09:55:42.768Z,1.20
2022-11-02T09:58:15.439Z,1.13
2022-11-02T10:00:42.475Z,1.60
2022-11-02T10:03:17.323Z,0.75
2022-11-02T10:05:43.608Z,0.77
2022-11-02T10:08:30.407Z,0.68
2022-11-02T10:11:08.238Z,1.10
2022-11-02T10:13:34.840Z,1.55
2022-11-02T10:16:05.696Z,1.13
2022-11-02T10:18:32.133Z,1.10
2022-11-02T10:20:59.662Z,1.00
2022-11-02T10:23:30.070Z,1.30
2022-11-02T10:25:56.370Z,1.45
2022-11-02T10:28:25.965Z,1.05
2022-11-02T10:30:52.799Z,0.52
2022-11-02T10:33:20.813Z,0.85
2022-11-02T10:36:18.635Z,0.80
2022-11-02T10:38:51.229Z,0.68
2022-11-02T10:41:20.502Z,1.15
2022-11-02T10:44:05.449Z,0.73
2022-11-02T10:46:38.966Z,0.60
2022-11-02T10:49:27.298Z,0.70
2022-11-02T10:51:53.634Z,1.00
2022-11-02T10:54:24.054Z,0.88
2022-11-02T10:56:56.349Z,1.00
2022-11-02T10:59:25.739Z,1.13
2022-11-02T11:02:02.305Z,0.90
2022-11-02T11:04:29.690Z,1.15
2022-11-02T11:06:56.733Z,1.10
2022-11-02T11:09:24.843Z,0.80
2022-11-02T11:12:01.851Z,0.57
2022-11-02T11:20:07.284Z,0.55
2022-11-02T11:22:39.891Z,0.82
2022-11-02T11:25:12.148Z,0.50
2022-11-02T11:27:45.636Z,0.70
2022-11-02T11:30:58.272Z,0.40
2022-11-02T11:33:19.307Z,1.13
2022-11-02T11:35:48.894Z,0.50
2022-11-02T11:38:16.415Z,0.65
2022-11-02T11:40:47.968Z,0.57
2022-11-02T11:43:17.607Z,0.52
2022-11-02T11:45:54.499Z,1.10
2022-11-02T11:48:20.963Z,0.93
2022-11-02T11:50:47.966Z,0.80
2022-11-02T11:53:22.579Z,0.70
2022-11-02T11:55:50.392Z,0.73
2022-11-02T11:58:17.101Z,0.80
2022-11-02T12:00:43.773Z,0.70
2022-11-02T12:03:11.390Z,0.50
2022-11-02T12:05:41.030Z,0.50
2022-11-02T12:08:07.764Z,0.75
2022-11-02T12:10:48.019Z,0.85
2022-11-02T12:13:19.791Z,0.60
2022-11-02T12:15:59.680Z,0.45
2022-11-02T12:18:44.723Z,0.60
2022-11-02T12:21:28.625Z,0.47
2022-11-02T12:24:13.875Z,0.85
2022-11-02T12:27:00.454Z,0.28
2022-11-02T12:29:42.552Z,0.20
2022-11-02T12:34:57.773Z,0.25
2022-11-02T12:37:40.833Z,0.22
2022-11-02T12:40:13.737Z,0.10
2022-11-02T12:42:45.719Z,0.30
2022-11-02T12:47:56.847Z,0.30
2022-11-02T12:50:27.400Z,0.40
2022-11-02T12:53:12.451Z,0.70
2022-11-02T12:55:43.044Z,0.60
2022-11-02T12:58:29.772Z,0.50
2022-11-02T13:01:01.354Z,0.40
2022-11-02T13:03:34.007Z,0.50
2022-11-02T13:06:06.338Z,0.20
2022-11-02T13:08:36.034Z,0.30
2022-11-02T13:11:06.118Z,0.20
2022-11-02T13:13:34.903Z,0.22
2022-11-02T13:16:03.055Z,0.20
2022-11-02T13:18:30.872Z,0.40
2022-11-02T13:20:58.319Z,0.80
2022-11-02T13:23:27.641Z,1.02
2022-11-02T13:26:02.041Z,1.05
2022-11-02T13:28:31.304Z,1.35
2022-11-02T13:30:58.364Z,1.00
2022-11-02T13:33:36.990Z,0.60
2022-11-02T13:36:03.448Z,0.95
2022-11-02T13:38:31.885Z,0.30
2022-11-02T13:41:04.933Z,1.20
2022-11-02T13:43:40.555Z,0.60
2022-11-02T13:46:13.003Z,0.77
2022-11-02T13:48:41.094Z,0.60
2022-11-02T13:51:19.237Z,0.40
2022-11-02T13:53:50.944Z,0.80
2022-11-02T13:56:22.208Z,0.55
2022-11-02T13:58:53.112Z,0.68
2022-11-02T14:01:19.926Z,1.08
2022-11-02T14:03:53.177Z,0.40
2022-11-02T14:06:21.638Z,0.85
2022-11-02T14:08:54.466Z,1.27
2022-11-02T14:11:20.747Z,0.88
2022-11-02T14:13:58.949Z,1.05
2022-11-02T14:16:40.289Z,0.88
2022-11-02T14:19:18.009Z,0.98
2022-11-02T14:21:49.768Z,0.85
2022-11-02T14:24:36.437Z,0.80
2022-11-02T14:27:11.705Z,0.80
2022-11-02T14:29:47.208Z,0.90
2022-11-02T14:32:23.988Z,0.80
2022-11-02T14:34:53.463Z,0.77
2022-11-02T14:37:19.723Z,0.70
2022-11-02T14:39:48.891Z,0.90
2022-11-02T14:42:15.279Z,0.60
2022-11-02T14:44:59.663Z,0.70
2022-11-02T14:47:30.796Z,1.13
2022-11-02T14:50:01.569Z,1.25
2022-11-02T14:52:29.707Z,0.77
2022-11-02T14:54:58.843Z,0.65
2022-11-02T14:57:29.664Z,0.80
2022-11-02T14:59:57.548Z,0.63
2022-11-02T15:02:30.020Z,0.75
2022-11-02T15:04:59.192Z,0.55
2022-11-02T15:07:36.923Z,0.70
2022-11-02T15:10:03.351Z,0.80
2022-11-02T15:12:35.601Z,0.90
2022-11-02T15:15:05.962Z,0.50
2022-11-02T15:17:32.244Z,0.57
2022-11-02T15:19:58.521Z,0.57
2022-11-02T15:22:37.132Z,1.10
2022-11-02T15:25:12.475Z,0.90
2022-11-02T15:27:40.905Z,0.68
2022-11-02T15:30:11.757Z,0.77
2022-11-02T15:32:40.006Z,0.60
2022-11-02T15:35:12.243Z,1.30
2022-11-02T15:37:56.347Z,1.02
2022-11-02T15:40:29.132Z,1.00
2022-11-02T15:43:03.417Z,0.85
2022-11-02T15:45:50.532Z,0.70
2022-11-02T15:48:47.904Z,0.80
2022-11-02T15:51:25.062Z,0.50
2022-11-02T15:54:03.292Z,0.50
2022-11-02T15:56:40.660Z,0.50
2022-11-02T15:59:37.073Z,0.40
2022-11-02T16:02:18.887Z,0.52
2022-11-02T16:04:47.019Z,0.47
2022-11-02T16:07:14.914Z,0.70
2022-11-02T16:09:41.230Z,0.50
2022-11-02T16:12:07.486Z,0.88
2022-11-02T16:14:33.792Z,1.40
2022-11-02T16:17:00.121Z,1.20
2022-11-02T16:19:26.398Z,0.80
2022-11-02T16:21:55.987Z,1.35
2022-11-02T16:24:25.038Z,1.50
2022-11-02T16:26:51.499Z,1.00
2022-11-02T16:29:30.143Z,1.00
2022-11-02T16:31:56.848Z,1.13
2022-11-02T16:34:25.421Z,1.30
2022-11-02T16:36:51.877Z,0.57
2022-11-02T16:39:23.011Z,0.50
2022-11-02T16:41:50.687Z,0.30
2022-11-02T16:44:27.047Z,0.50
2022-11-02T16:46:55.475Z,0.55
2022-11-02T16:49:23.079Z,0.20
2022-11-02T16:51:54.056Z,0.30
2022-11-02T16:54:26.174Z,0.30
2022-11-02T16:56:52.896Z,0.20
2022-11-02T16:59:21.394Z,0.40
2022-11-02T17:01:47.946Z,0.35
2022-11-02T17:04:15.693Z,0.20
2022-11-02T17:06:43.036Z,0.20
2022-11-02T17:09:32.079Z,0.20
2022-11-02T17:12:00.183Z,0.82
2022-11-02T17:14:26.856Z,1.30
2022-11-02T17:17:13.430Z,1.42
2022-11-02T17:19:39.694Z,1.00
2022-11-02T17:22:21.039Z,0.60
2022-11-02T17:24:48.142Z,0.33
2022-11-02T17:27:25.629Z,0.30
2022-11-02T17:29:52.762Z,0.40
2022-11-02T17:32:19.667Z,0.35
2022-11-02T17:34:53.358Z,0.70
2022-11-02T17:37:24.248Z,0.63
2022-11-02T17:39:50.670Z,0.85
2022-11-02T17:42:36.086Z,0.50
2022-11-02T17:45:28.626Z,0.45
2022-11-02T17:47:56.027Z,0.30
2022-11-02T17:50:23.317Z,0.15
2022-11-02T17:52:50.679Z,0.20
2022-11-02T17:55:18.659Z,0.22
2022-11-02T17:57:45.177Z,0.50
2022-11-02T18:00:12.130Z,0.57
2022-11-02T18:02:39.477Z,0.60
2022-11-02T18:05:15.784Z,0.88
2022-11-02T18:07:42.094Z,1.33
2022-11-02T18:10:08.615Z,0.75
2022-11-02T18:12:34.973Z,1.02
2022-11-02T18:15:01.314Z,0.60
2022-11-02T18:17:31.062Z,0.80
2022-11-02T18:20:01.202Z,0.80
2022-11-02T18:22:27.534Z,0.50
2022-11-02T18:24:53.915Z,1.33
2022-11-02T18:27:21.639Z,1.15
2022-11-02T18:29:49.909Z,0.90
2022-11-02T18:32:16.187Z,0.60
2022-11-02T18:34:42.504Z,0.60
2022-11-02T18:37:08.799Z,0.70
2022-11-02T18:39:35.231Z,0.70
2022-11-02T18:42:01.622Z,0.82
2022-11-02T18:44:28.163Z,0.80
2022-11-02T18:46:55.130Z,0.90
2022-11-02T18:49:21.426Z,0.60
2022-11-02T18:51:47.845Z,0.80
2022-11-02T18:54:14.951Z,0.60
2022-11-02T18:56:41.368Z,0.50
2022-11-02T18:59:07.774Z,0.95
2022-11-02T19:01:34.553Z,1.20
2022-11-02T19:04:01.127Z,0.50
2022-11-02T19:06:47.023Z,0.40
2022-11-02T19:09:20.647Z,0.32
2022-11-02T19:11:47.536Z,0.43
2022-11-02T19:14:13.885Z,1.30
2022-11-02T19:16:40.372Z,1.10
2022-11-02T19:19:06.693Z,1.00
2022-11-02T19:21:33.025Z,1.13
2022-11-02T19:23:59.436Z,1.10
2022-11-02T19:29:00.022Z,0.93
2022-11-02T19:31:31.011Z,1.40
2022-11-02T19:33:57.921Z,1.60
2022-11-02T19:36:25.152Z,1.10
2022-11-02T19:38:51.512Z,0.55
2022-11-02T19:41:17.921Z,1.50
2022-11-02T19:43:44.917Z,1.17
2022-11-02T19:46:29.476Z,0.70
2022-11-02T19:48:56.528Z,0.60
2022-11-02T19:51:24.093Z,0.60
2022-11-02T19:53:51.525Z,0.40
2022-11-02T19:56:18.572Z,0.70
2022-11-02T19:58:45.419Z,0.80
2022-11-02T20:01:16.220Z,0.88
2022-11-02T20:03:42.959Z,0.75
2022-11-02T20:06:13.907Z,0.80
2022-11-02T20:08:40.577Z,1.60
2022-11-02T20:11:11.438Z,4.63
2022-11-02T20:13:38.927Z,4.45
2022-11-02T20:16:05.728Z,3.70
2022-11-02T20:18:33.448Z,3.15
2022-11-02T20:21:19.407Z,2.50
2022-11-02T20:23:46.306Z,8.77
2022-11-02T20:26:14.219Z,3.45
2022-11-02T20:28:41.333Z,1.90
2022-11-02T20:31:08.492Z,1.20
2022-11-02T20:33:35.523Z,1.00
2022-11-02T20:36:01.957Z,0.98
2022-11-02T20:38:28.394Z,1.40
2022-11-02T20:40:54.775Z,0.95
2022-11-02T20:43:21.174Z,1.25
2022-11-02T20:45:47.454Z,0.93
2022-11-02T20:48:13.924Z,2.05
2022-11-02T20:50:40.391Z,2.20
2022-11-02T20:53:07.033Z,2.05
2022-11-02T20:55:33.486Z,1.30
2022-11-02T20:57:59.808Z,0.98
2022-11-02T21:00:26.115Z,0.50
2022-11-02T21:02:52.424Z,0.60
2022-11-02T21:05:18.873Z,0.90
2022-11-02T21:07:45.205Z,0.70
2022-11-02T21:10:11.577Z,1.13
2022-11-02T21:12:56.771Z,1.08
2022-11-02T21:15:23.102Z,0.77
2022-11-02T21:17:49.387Z,1.27
2022-11-02T21:23:02.510Z,1.00
2022-11-02T21:25:29.402Z,1.10
2022-11-02T21:27:55.755Z,1.20
2022-11-02T21:30:22.078Z,1.27
2022-11-02T21:32:52.083Z,1.40
2022-11-02T21:35:19.078Z,1.40
2022-11-02T21:37:45.514Z,1.20
2022-11-02T21:40:12.160Z,1.73
2022-11-02T21:42:38.486Z,1.85
2022-11-02T21:45:05.149Z,2.33
2022-11-02T21:47:34.336Z,2.03
2022-11-02T21:50:01.693Z,2.03
2022-11-02T21:52:28.182Z,1.45
2022-11-02T21:54:54.525Z,1.10
2022-11-02T21:57:20.848Z,1.58
2022-11-02T21:59:47.234Z,1.40
2022-11-02T22:02:13.720Z,0.98
2022-11-02T22:04:40.064Z,1.20
2022-11-02T22:07:06.351Z,1.70
2022-11-02T22:09:32.729Z,2.08
2022-11-02T22:12:17.453Z,1.30
2022-11-02T22:14:44.786Z,2.10
2022-11-02T22:17:22.362Z,1.80
2022-11-02T22:19:58.148Z,1.30
2022-11-02T22:22:24.428Z,1.20
2022-11-02T22:24:50.756Z,1.25
2022-11-02T22:27:17.199Z,1.10
2022-11-02T22:29:43.525Z,1.33
2022-11-02T22:32:09.914Z,1.10
2022-11-02T22:34:36.400Z,1.30
2022-11-02T22:37:21.321Z,1.20
2022-11-02T22:39:47.695Z,1.02
2022-11-02T22:42:13.976Z,1.13
2022-11-02T22:44:40.399Z,1.00
2022-11-02T22:47:06.808Z,0.73
2022-11-02T22:49:35.003Z,1.10
2022-11-02T22:52:01.663Z,0.80
2022-11-02T22:54:27.972Z,0.80
2022-11-02T22:56:55.410Z,0.80
2022-11-02T22:59:21.830Z,0.70
2022-11-02T23:01:48.300Z,0.77
2022-11-02T23:04:14.674Z,0.95
2022-11-02T23:06:40.973Z,0.60
2022-11-02T23:09:07.418Z,0.52
2022-11-02T23:11:36.094Z,0.70
2022-11-02T23:14:12.643Z,0.57
2022-11-02T23:16:40.295Z,0.50
2022-11-02T23:19:28.196Z,0.60
2022-11-02T23:22:13.455Z,0.50
2022-11-02T23:24:59.810Z,0.60
2022-11-02T23:27:26.228Z,0.55
2022-11-02T23:30:11.240Z,0.77
2022-11-02T23:32:37.536Z,0.70
2022-11-02T23:35:22.663Z,0.50
2022-11-02T23:37:48.996Z,0.40
2022-11-02T23:40:16.331Z,0.52
2022-11-02T23:42:42.944Z,0.47
2022-11-02T23:45:09.885Z,0.50
2022-11-02T23:47:54.806Z,0.70
2022-11-02T23:50:40.786Z,0.80
2022-11-02T23:53:28.747Z,0.80
2022-11-02T23:56:13.756Z,0.80
2022-11-02T23:58:40.191Z,0.60
